createdAt,value
2018-09-19T00:01:58.050Z,72.43
2018-09-19T00:04:26.728Z,71.96
2018-09-19T00:06:55.396Z,72.39
2018-09-19T00:09:24.046Z,72.15
2018-09-19T00:11:52.693Z,72.86
2018-09-19T00:14:21.347Z,72.82
2018-09-19T00:16:49.965Z,72.49
2018-09-19T00:19:18.635Z,72.63
2018-09-19T00:21:47.251Z,71.97
2018-09-19T00:24:15.925Z,72.12
2018-09-19T00:26:44.574Z,72.85
2018-09-19T00:29:13.194Z,72.51
2018-09-19T00:31:41.857Z,72.42
2018-09-19T00:34:10.549Z,72.56
2018-09-19T00:36:39.163Z,71.73
2018-09-19T00:39:08.793Z,72.78
2018-09-19T00:41:37.613Z,72.84
2018-09-19T00:44:06.388Z,72.71
2018-09-19T00:46:35.004Z,73.61
2018-09-19T00:49:03.611Z,72.98
2018-09-19T00:51:32.244Z,73.67
2018-09-19T00:54:00.864Z,72.89
2018-09-19T00:56:29.491Z,72.90
2018-09-19T00:58:58.232Z,73.53
2018-09-19T01:01:26.890Z,73.19
2018-09-19T01:03:55.517Z,74.06
2018-09-19T01:06:24.118Z,73.95
2018-09-19T01:08:52.724Z,73.67
2018-09-19T01:11:21.355Z,73.68
2018-09-19T01:13:50.074Z,74.04
2018-09-19T01:16:18.723Z,73.77
2018-09-19T01:18:47.343Z,74.26
2018-09-19T01:21:16.044Z,74.35
2018-09-19T01:23:44.650Z,74.33
2018-09-19T01:26:13.304Z,74.34
2018-09-19T01:28:41.934Z,73.91
2018-09-19T01:31:10.569Z,74.42
2018-09-19T01:33:39.227Z,74.39
2018-09-19T01:36:07.883Z,73.60
2018-09-19T01:38:36.524Z,74.29
2018-09-19T01:41:05.176Z,73.78
2018-09-19T01:43:33.824Z,74.58
2018-09-19T01:46:02.440Z,74.57
2018-09-19T01:48:31.079Z,74.34
2018-09-19T01:50:59.732Z,73.71
2018-09-19T01:53:28.376Z,73.41
2018-09-19T01:55:57.026Z,73.96
2018-09-19T01:58:25.741Z,74.33
2018-09-19T02:00:54.358Z,74.24
2018-09-19T02:03:23.007Z,74.75
2018-09-19T02:05:51.692Z,74.84
2018-09-19T02:08:20.331Z,75.16
2018-09-19T02:10:48.994Z,75.61
2018-09-19T02:13:17.808Z,75.71
2018-09-19T02:15:46.442Z,75.80
2018-09-19T02:18:15.107Z,75.65
2018-09-19T02:20:43.832Z,75.18
2018-09-19T02:23:12.531Z,75.16
2018-09-19T02:25:41.177Z,75.74
2018-09-19T02:28:09.888Z,75.08
2018-09-19T02:30:38.557Z,75.41
2018-09-19T02:33:07.178Z,75.90
2018-09-19T02:35:35.884Z,76.04
2018-09-19T02:38:04.633Z,76.06
2018-09-19T02:40:33.274Z,76.17
2018-09-19T02:43:01.895Z,76.21
2018-09-19T02:45:30.533Z,75.55
2018-09-19T02:47:59.176Z,76.03
2018-09-19T02:50:27.807Z,76.29
2018-09-19T02:52:57.265Z,76.14
2018-09-19T02:55:27.007Z,74.91
2018-09-19T02:57:55.659Z,74.97
2018-09-19T03:00:24.361Z,75.98
2018-09-19T03:02:53.012Z,76.33
2018-09-19T03:05:21.676Z,76.58
2018-09-19T03:07:50.287Z,76.49
2018-09-19T03:10:18.908Z,76.27
2018-09-19T03:12:47.558Z,76.84
2018-09-19T03:15:16.192Z,77.03
2018-09-19T03:17:44.926Z,77.04
2018-09-19T03:20:13.514Z,76.31
2018-09-19T03:22:42.130Z,75.85
2018-09-19T03:25:10.828Z,76.26
2018-09-19T03:27:39.499Z,76.90
2018-09-19T03:30:08.207Z,76.88
2018-09-19T03:32:36.833Z,77.33
2018-09-19T03:35:05.551Z,76.91
2018-09-19T03:37:34.200Z,77.70
2018-09-19T03:40:02.811Z,76.92
2018-09-19T03:42:31.424Z,76.56
2018-09-19T03:45:00.055Z,77.02
2018-09-19T03:47:28.712Z,76.39
2018-09-19T03:49:57.325Z,76.60
2018-09-19T03:52:25.927Z,76.95
2018-09-19T03:54:54.590Z,77.46
2018-09-19T03:57:24.161Z,76.70
2018-09-19T03:59:52.792Z,77.79
2018-09-19T04:02:21.452Z,78.03
2018-09-19T04:04:50.076Z,77.75
2018-09-19T04:07:18.835Z,76.71
2018-09-19T04:09:47.551Z,77.61
2018-09-19T04:12:16.399Z,77.97
2018-09-19T04:14:45.191Z,77.41
2018-09-19T04:17:14.180Z,77.00
2018-09-19T04:19:42.958Z,76.65
2018-09-19T04:22:11.863Z,75.56
2018-09-19T04:24:40.811Z,75.36
2018-09-19T04:27:09.864Z,73.97
2018-09-19T04:29:38.568Z,73.09
2018-09-19T04:32:07.254Z,72.43
2018-09-19T04:34:36.171Z,71.32
2018-09-19T04:37:05.340Z,70.80
2018-09-19T04:39:34.229Z,70.66
2018-09-19T04:42:02.939Z,69.15
2018-09-19T04:44:31.630Z,68.44
2018-09-19T04:47:00.384Z,67.50
2018-09-19T04:49:29.058Z,66.88
2018-09-19T04:51:57.770Z,67.50
2018-09-19T04:54:26.409Z,66.77
2018-09-19T04:56:55.084Z,66.16
2018-09-19T04:59:23.768Z,66.17
2018-09-19T05:01:52.455Z,64.81
2018-09-19T05:04:21.110Z,64.86
2018-09-19T05:06:49.763Z,63.09
2018-09-19T05:09:18.464Z,62.67
2018-09-19T05:11:47.111Z,62.58
2018-09-19T05:14:15.849Z,60.94
2018-09-19T05:16:44.506Z,60.94
2018-09-19T05:19:13.153Z,61.10
2018-09-19T05:21:41.790Z,60.06
2018-09-19T05:24:10.449Z,60.88
2018-09-19T05:26:39.135Z,61.09
2018-09-19T05:29:07.771Z,59.92
2018-09-19T05:31:36.578Z,59.53
2018-09-19T05:34:05.241Z,58.47
2018-09-19T05:36:33.910Z,58.05
2018-09-19T05:39:02.578Z,58.86
2018-09-19T05:41:31.258Z,57.66
2018-09-19T05:43:59.920Z,58.81
2018-09-19T05:46:28.548Z,57.28
2018-09-19T05:48:57.180Z,58.29
2018-09-19T05:51:25.860Z,58.21
2018-09-19T05:53:54.515Z,57.87
2018-09-19T05:56:23.218Z,57.41
2018-09-19T05:58:51.902Z,56.39
2018-09-19T06:01:20.586Z,57.16
2018-09-19T06:03:49.252Z,56.12
2018-09-19T06:06:17.883Z,55.67
2018-09-19T06:08:46.676Z,54.54
2018-09-19T06:11:15.381Z,55.54
2018-09-19T06:13:44.180Z,56.23
2018-09-19T06:16:12.820Z,55.31
2018-09-19T06:18:41.429Z,55.93
2018-09-19T06:21:10.095Z,53.50
2018-09-19T06:23:38.873Z,53.69
2018-09-19T06:26:07.522Z,53.81
2018-09-19T06:28:36.170Z,52.39
2018-09-19T06:31:04.756Z,52.11
2018-09-19T06:33:33.477Z,52.06
2018-09-19T06:36:02.073Z,52.06
2018-09-19T06:38:30.707Z,52.85
2018-09-19T06:40:59.423Z,52.02
2018-09-19T06:43:28.062Z,51.79
2018-09-19T06:45:56.689Z,49.75
2018-09-19T06:48:25.310Z,50.63
2018-09-19T06:50:53.995Z,50.98
2018-09-19T06:53:22.637Z,51.32
2018-09-19T06:55:51.289Z,50.94
2018-09-19T06:58:20.017Z,49.19
2018-09-19T07:00:48.654Z,48.57
2018-09-19T07:03:17.328Z,48.01
2018-09-19T07:05:46.169Z,47.23
2018-09-19T07:08:14.870Z,48.07
2018-09-19T07:10:43.593Z,48.13
2018-09-19T07:13:12.311Z,47.67
2018-09-19T07:15:41.046Z,47.58
2018-09-19T07:18:09.756Z,47.92
2018-09-19T07:20:38.435Z,46.71
2018-09-19T07:23:07.227Z,48.14
2018-09-19T07:25:35.886Z,47.57
2018-09-19T07:28:04.615Z,45.75
2018-09-19T07:30:33.235Z,46.01
2018-09-19T07:33:01.888Z,45.69
2018-09-19T07:35:30.656Z,44.62
2018-09-19T07:37:59.277Z,46.32
2018-09-19T07:40:28.002Z,45.05
2018-09-19T07:42:56.634Z,45.16
2018-09-19T07:45:25.275Z,45.30
2018-09-19T07:47:53.951Z,45.75
2018-09-19T07:50:22.586Z,45.51
2018-09-19T07:52:51.236Z,44.73
2018-09-19T07:55:19.932Z,44.11
2018-09-19T07:57:48.589Z,44.19
2018-09-19T08:00:20.154Z,44.29
2018-09-19T08:02:49.109Z,43.03
2018-09-19T08:05:18.141Z,42.43
2018-09-19T08:07:46.867Z,42.56
2018-09-19T08:10:15.523Z,42.38
2018-09-19T08:12:44.159Z,43.14
2018-09-19T08:15:12.803Z,43.08
2018-09-19T08:17:41.416Z,44.15
2018-09-19T08:20:10.283Z,43.97
2018-09-19T08:22:39.035Z,43.83
2018-09-19T08:25:07.883Z,42.21
2018-09-19T08:27:36.768Z,41.20
2018-09-19T08:30:08.766Z,40.71
2018-09-19T08:32:37.433Z,40.95
2018-09-19T08:35:06.294Z,40.11
2018-09-19T08:37:35.082Z,39.93
2018-09-19T08:40:04.099Z,38.90
2018-09-19T08:42:32.738Z,38.85
2018-09-19T08:45:01.421Z,39.69
2018-09-19T08:47:30.155Z,39.20
2018-09-19T08:49:58.798Z,39.03
2018-09-19T08:52:27.549Z,38.53
2018-09-19T08:54:56.232Z,39.26
2018-09-19T08:57:24.969Z,38.94
2018-09-19T08:59:53.788Z,37.78
2018-09-19T09:02:22.458Z,36.86
2018-09-19T09:04:51.147Z,38.11
2018-09-19T09:07:19.851Z,37.45
2018-09-19T09:09:48.481Z,36.90
2018-09-19T09:12:17.235Z,36.62
2018-09-19T09:14:45.909Z,36.92
2018-09-19T09:17:14.631Z,36.86
2018-09-19T09:19:43.393Z,37.70
2018-09-19T09:22:12.103Z,38.12
2018-09-19T09:24:40.834Z,37.33
2018-09-19T09:27:09.641Z,36.59
2018-09-19T09:29:38.270Z,34.78
2018-09-19T09:32:07.009Z,34.30
2018-09-19T09:34:35.666Z,33.13
2018-09-19T09:37:04.433Z,34.32
2018-09-19T09:39:33.079Z,35.43
2018-09-19T09:42:01.851Z,35.02
2018-09-19T09:44:30.606Z,33.58
2018-09-19T09:46:59.561Z,34.65
2018-09-19T09:49:28.357Z,33.86
2018-09-19T09:51:57.113Z,34.09
2018-09-19T09:54:25.898Z,33.52
2018-09-19T09:56:54.570Z,34.08
2018-09-19T09:59:23.251Z,34.28
2018-09-19T10:01:52.082Z,33.38
2018-09-19T10:04:20.799Z,36.17
2018-09-19T10:06:49.488Z,36.42
2018-09-19T10:09:24.550Z,36.46
2018-09-19T10:11:53.244Z,34.15
2018-09-19T10:14:21.888Z,33.11
2018-09-19T10:16:50.658Z,33.61
2018-09-19T10:19:19.723Z,32.30
2018-09-19T10:21:48.430Z,33.16
2018-09-19T10:24:17.115Z,31.74
2018-09-19T10:26:45.760Z,32.72
2018-09-19T10:29:14.476Z,33.15
2018-09-19T10:31:43.090Z,32.65
2018-09-19T10:34:11.770Z,30.99
2018-09-19T10:36:40.447Z,33.37
2018-09-19T10:39:09.121Z,33.28
2018-09-19T10:41:37.815Z,32.64
2018-09-19T10:44:06.503Z,31.30
2018-09-19T10:46:35.219Z,31.58
2018-09-19T10:49:03.889Z,31.26
2018-09-19T10:51:32.805Z,30.80
2018-09-19T10:54:01.512Z,30.96
2018-09-19T10:56:30.201Z,31.48
2018-09-19T10:58:58.887Z,30.71
2018-09-19T11:01:27.593Z,31.81
2018-09-19T11:03:56.330Z,30.04
2018-09-19T11:06:25.043Z,29.02
2018-09-19T11:08:53.778Z,28.88
2018-09-19T11:11:22.550Z,29.44
2018-09-19T11:13:51.233Z,29.39
2018-09-19T11:16:19.875Z,30.12
2018-09-19T11:18:48.565Z,29.43
2018-09-19T11:21:17.322Z,30.06
2018-09-19T11:23:46.010Z,28.40
2018-09-19T11:26:14.698Z,27.77
2018-09-19T11:28:43.371Z,29.66
2018-09-19T11:31:12.083Z,28.48
2018-09-19T11:33:40.785Z,28.83
2018-09-19T11:36:09.405Z,28.42
2018-09-19T11:38:38.062Z,29.58
2018-09-19T11:41:06.755Z,28.26
2018-09-19T11:43:35.439Z,27.86
2018-09-19T11:46:05.041Z,28.12
2018-09-19T11:48:33.707Z,28.83
2018-09-19T11:51:02.407Z,29.16
2018-09-19T11:53:31.044Z,30.06
2018-09-19T11:56:00.519Z,28.88
2018-09-19T11:58:30.168Z,27.96
2018-09-19T12:00:59.247Z,27.12
2018-09-19T12:03:28.443Z,27.64
2018-09-19T12:05:57.142Z,27.96
2018-09-19T12:08:25.803Z,29.04
2018-09-19T12:10:54.507Z,29.11
2018-09-19T12:13:23.178Z,29.43
2018-09-19T12:15:51.846Z,29.44
2018-09-19T12:18:20.542Z,28.49
2018-09-19T12:20:49.199Z,29.50
2018-09-19T12:23:17.876Z,30.43
2018-09-19T12:25:46.603Z,30.08
2018-09-19T12:28:15.262Z,29.90
2018-09-19T12:30:43.891Z,30.02
2018-09-19T12:33:12.566Z,29.14
2018-09-19T12:35:41.241Z,29.89
2018-09-19T12:38:09.887Z,30.47
2018-09-19T12:40:38.665Z,28.94
2018-09-19T12:43:07.358Z,30.11
2018-09-19T12:45:36.619Z,29.07
2018-09-19T12:48:05.404Z,29.57
2018-09-19T12:50:34.184Z,31.37
2018-09-19T12:53:02.907Z,32.93
2018-09-19T12:55:31.647Z,32.52
2018-09-19T12:58:00.361Z,33.22
2018-09-19T13:00:29.039Z,33.55
2018-09-19T13:02:57.720Z,32.95
2018-09-19T13:05:26.332Z,33.09
2018-09-19T13:07:55.025Z,34.05
2018-09-19T13:10:23.710Z,34.65
2018-09-19T13:12:52.402Z,34.98
2018-09-19T13:15:21.074Z,35.03
2018-09-19T13:17:49.803Z,33.53
2018-09-19T13:20:18.467Z,33.76
2018-09-19T13:22:47.153Z,34.14
2018-09-19T13:25:15.924Z,34.79
2018-09-19T13:27:44.566Z,34.37
2018-09-19T13:30:13.352Z,34.66
2018-09-19T13:32:42.016Z,34.71
2018-09-19T13:35:10.691Z,35.09
2018-09-19T13:37:39.371Z,35.51
2018-09-19T13:40:08.141Z,35.16
2018-09-19T13:42:36.915Z,35.00
2018-09-19T13:45:05.603Z,34.44
2018-09-19T13:47:34.423Z,34.70
2018-09-19T13:50:20.228Z,35.33
2018-09-19T13:52:48.934Z,35.57
2018-09-19T13:55:17.658Z,35.54
2018-09-19T13:57:46.335Z,35.82
2018-09-19T14:00:21.049Z,36.14
2018-09-19T14:02:49.743Z,35.41
2018-09-19T14:05:18.407Z,34.87
2018-09-19T14:07:47.247Z,35.76
2018-09-19T14:10:16.036Z,36.08
2018-09-19T14:12:44.755Z,36.01
2018-09-19T14:15:13.739Z,35.83
2018-09-19T14:17:42.423Z,35.67
2018-09-19T14:20:11.196Z,36.18
2018-09-19T14:22:39.914Z,36.20
2018-09-19T14:25:08.568Z,35.76
2018-09-19T14:27:37.223Z,34.42
2018-09-19T14:30:07.069Z,34.45
2018-09-19T14:32:36.034Z,34.28
2018-09-19T14:35:04.750Z,34.05
2018-09-19T14:37:33.518Z,33.54
2018-09-19T14:40:02.193Z,33.68
2018-09-19T14:42:30.867Z,33.50
2018-09-19T14:44:59.495Z,33.36
2018-09-19T14:47:28.179Z,33.68
2018-09-19T14:49:57.028Z,33.71
2018-09-19T14:52:25.723Z,33.33
2018-09-19T14:54:54.354Z,33.55
2018-09-19T14:57:23.049Z,33.59
2018-09-19T14:59:51.691Z,33.29
2018-09-19T15:02:20.399Z,32.87
2018-09-19T15:04:49.084Z,33.20
2018-09-19T15:07:17.790Z,33.18
2018-09-19T15:09:46.452Z,32.82
2018-09-19T15:12:15.138Z,33.07
2018-09-19T15:14:43.931Z,32.88
2018-09-19T15:17:12.615Z,32.36
2018-09-19T15:19:41.353Z,32.45
2018-09-19T15:22:10.012Z,32.59
2018-09-19T15:24:38.700Z,32.37
2018-09-19T15:27:07.655Z,32.59
2018-09-19T15:29:36.327Z,32.59
2018-09-19T15:32:05.012Z,32.69
2018-09-19T15:34:33.643Z,33.01
2018-09-19T15:37:02.394Z,33.41
2018-09-19T15:39:31.104Z,33.67
2018-09-19T15:42:02.983Z,34.18
2018-09-19T15:44:31.830Z,34.53
2018-09-19T15:47:00.383Z,35.67
2018-09-19T15:49:29.144Z,35.63
2018-09-19T15:51:57.843Z,36.07
2018-09-19T15:54:26.489Z,35.37
2018-09-19T15:56:55.144Z,36.13
2018-09-19T15:59:23.850Z,35.45
2018-09-19T16:01:52.510Z,36.14
2018-09-19T16:04:21.163Z,35.65
2018-09-19T16:06:50.100Z,36.67
2018-09-19T16:09:18.844Z,35.97
2018-09-19T16:11:47.531Z,35.86
2018-09-19T16:14:16.260Z,35.36
2018-09-19T16:16:44.940Z,36.11
2018-09-19T16:19:13.632Z,36.29
2018-09-19T16:21:42.286Z,37.24
2018-09-19T16:24:10.927Z,36.74
2018-09-19T16:26:39.571Z,36.57
2018-09-19T16:29:08.282Z,37.57
2018-09-19T16:31:36.935Z,36.92
2018-09-19T16:34:05.804Z,37.16
2018-09-19T16:36:34.559Z,38.43
2018-09-19T16:39:04.643Z,38.23
2018-09-19T16:41:33.322Z,37.37
2018-09-19T16:44:02.071Z,38.83
2018-09-19T16:46:30.712Z,38.54
2018-09-19T16:48:59.371Z,39.05
2018-09-19T16:51:28.063Z,39.39
2018-09-19T16:53:56.880Z,40.18
2018-09-19T16:56:25.837Z,42.10
2018-09-19T16:58:54.498Z,41.45
2018-09-19T17:01:23.244Z,42.30
2018-09-19T17:03:51.929Z,42.29
2018-09-19T17:06:20.603Z,42.46
2018-09-19T17:08:49.225Z,43.20
2018-09-19T17:11:17.887Z,43.14
2018-09-19T17:13:46.524Z,44.52
2018-09-19T17:16:15.714Z,44.42
2018-09-19T17:18:44.407Z,45.54
2018-09-19T17:21:13.114Z,45.73
2018-09-19T17:23:41.748Z,45.83
2018-09-19T17:26:10.385Z,46.54
2018-09-19T17:28:39.273Z,46.23
2018-09-19T17:31:07.981Z,47.06
2018-09-19T17:33:36.997Z,46.80
2018-09-19T17:36:05.887Z,47.63
2018-09-19T17:38:34.660Z,47.79
2018-09-19T17:41:03.347Z,47.84
2018-09-19T17:43:32.062Z,47.91
2018-09-19T17:46:01.057Z,47.94
2018-09-19T17:48:29.940Z,48.45
2018-09-19T17:50:58.617Z,47.79
2018-09-19T17:53:27.263Z,47.68
2018-09-19T17:55:55.930Z,48.62
2018-09-19T17:58:24.625Z,48.28
2018-09-19T18:00:53.389Z,48.56
2018-09-19T18:03:22.063Z,49.14
2018-09-19T18:05:51.081Z,49.13
2018-09-19T18:08:19.797Z,49.01
2018-09-19T18:10:49.148Z,50.14
2018-09-19T18:13:17.815Z,50.23
2018-09-19T18:15:46.749Z,50.06
2018-09-19T18:18:15.493Z,50.48
2018-09-19T18:20:44.303Z,51.64
2018-09-19T18:23:12.952Z,52.34
2018-09-19T18:25:41.811Z,52.45
2018-09-19T18:28:10.481Z,52.61
2018-09-19T18:30:39.308Z,52.72
2018-09-19T18:33:07.979Z,53.31
2018-09-19T18:35:36.670Z,53.66
2018-09-19T18:38:05.337Z,53.50
2018-09-19T18:40:34.089Z,54.23
2018-09-19T18:43:02.787Z,54.22
2018-09-19T18:45:31.426Z,53.88
2018-09-19T18:48:00.117Z,54.26
2018-09-19T18:50:28.770Z,54.42
2018-09-19T18:52:57.407Z,54.72
2018-09-19T18:55:26.055Z,54.68
2018-09-19T18:57:54.715Z,55.36
2018-09-19T19:00:23.449Z,55.12
2018-09-19T19:02:52.100Z,55.73
2018-09-19T19:05:20.856Z,55.64
2018-09-19T19:07:49.519Z,55.54
2018-09-19T19:10:18.189Z,56.16
2018-09-19T19:12:46.881Z,56.23
2018-09-19T19:15:15.479Z,55.88
2018-09-19T19:17:44.105Z,56.61
2018-09-19T19:20:12.779Z,56.21
2018-09-19T19:22:41.471Z,57.00
2018-09-19T19:25:10.187Z,56.21
2018-09-19T19:27:39.207Z,56.78
2018-09-19T19:30:11.759Z,56.69
2018-09-19T19:32:40.422Z,57.58
2018-09-19T19:35:09.156Z,57.53
2018-09-19T19:37:37.879Z,57.29
2018-09-19T19:40:06.869Z,57.30
2018-09-19T19:42:35.612Z,57.59
2018-09-19T19:45:04.259Z,57.89
2018-09-19T19:47:32.876Z,58.17
2018-09-19T19:50:01.529Z,57.75
2018-09-19T19:52:30.173Z,58.28
2018-09-19T19:54:58.811Z,58.45
2018-09-19T19:57:27.481Z,58.67
2018-09-19T19:59:56.106Z,59.13
2018-09-19T20:02:24.748Z,59.52
2018-09-19T20:04:53.453Z,59.33
2018-09-19T20:07:22.179Z,60.13
2018-09-19T20:09:50.828Z,59.87
2018-09-19T20:12:19.533Z,59.96
2018-09-19T20:14:48.200Z,60.31
2018-09-19T20:17:16.932Z,60.68
2018-09-19T20:19:45.657Z,60.56
2018-09-19T20:22:14.307Z,59.88
2018-09-19T20:24:42.986Z,60.18
2018-09-19T20:27:11.616Z,60.66
2018-09-19T20:29:40.263Z,60.81
2018-09-19T20:32:08.904Z,61.06
2018-09-19T20:34:37.640Z,61.62
2018-09-19T20:37:06.444Z,61.94
2018-09-19T20:39:35.095Z,62.39
2018-09-19T20:42:03.732Z,62.17
2018-09-19T20:44:32.456Z,61.83
2018-09-19T20:47:01.239Z,61.54
2018-09-19T20:49:29.865Z,62.34
2018-09-19T20:51:58.532Z,62.14
2018-09-19T20:54:28.645Z,61.62
2018-09-19T20:56:57.400Z,62.49
2018-09-19T20:59:26.072Z,62.05
2018-09-19T21:01:54.731Z,62.46
2018-09-19T21:04:23.442Z,61.80
2018-09-19T21:06:52.131Z,62.11
2018-09-19T21:09:20.761Z,62.70
2018-09-19T21:11:49.400Z,61.89
2018-09-19T21:14:18.075Z,62.34
2018-09-19T21:16:46.738Z,62.50
2018-09-19T21:19:15.383Z,62.02
2018-09-19T21:21:44.109Z,62.46
2018-09-19T21:24:12.884Z,62.96
2018-09-19T21:26:41.555Z,62.89
2018-09-19T21:29:10.240Z,62.49
2018-09-19T21:31:38.971Z,62.36
2018-09-19T21:34:07.675Z,62.40
2018-09-19T21:36:36.338Z,63.33
2018-09-19T21:39:07.797Z,63.54
2018-09-19T21:41:36.476Z,62.81
2018-09-19T21:44:05.115Z,63.37
2018-09-19T21:46:33.773Z,64.06
2018-09-19T21:49:02.396Z,63.79
2018-09-19T21:51:31.097Z,64.45
2018-09-19T21:53:59.770Z,64.83
2018-09-19T21:56:28.476Z,64.74
2018-09-19T21:58:57.218Z,65.00
2018-09-19T22:01:31.045Z,65.13
2018-09-19T22:03:59.755Z,64.85
2018-09-19T22:06:28.440Z,65.69
2018-09-19T22:08:57.118Z,66.04
2018-09-19T22:11:25.840Z,65.76
2018-09-19T22:13:54.467Z,65.53
2018-09-19T22:16:23.114Z,65.49
2018-09-19T22:18:51.795Z,66.23
2018-09-19T22:21:20.438Z,66.10
2018-09-19T22:23:49.085Z,66.60
2018-09-19T22:26:17.770Z,67.04
2018-09-19T22:28:46.411Z,66.61
2018-09-19T22:31:15.056Z,66.88
2018-09-19T22:33:43.791Z,66.68
2018-09-19T22:36:12.433Z,67.20
2018-09-19T22:38:41.108Z,67.20
2018-09-19T22:41:09.832Z,67.58
2018-09-19T22:43:38.473Z,67.49
2018-09-19T22:46:07.166Z,68.27
2018-09-19T22:48:35.900Z,68.00
2018-09-19T22:51:04.611Z,68.90
2018-09-19T22:53:33.315Z,68.53
2018-09-19T22:56:01.973Z,68.38
2018-09-19T22:58:30.657Z,68.84
2018-09-19T23:00:59.379Z,68.38
2018-09-19T23:03:28.040Z,68.27
2018-09-19T23:05:56.706Z,68.63
2018-09-19T23:08:25.349Z,67.94
2018-09-19T23:10:53.974Z,67.77
2018-09-19T23:13:22.635Z,67.86
2018-09-19T23:15:51.269Z,68.02
2018-09-19T23:18:20.265Z,68.14
2018-09-19T23:23:46.521Z,68.57
2018-09-19T23:26:15.152Z,69.17
2018-09-19T23:28:43.829Z,69.33
2018-09-19T23:31:12.478Z,68.85
2018-09-19T23:33:41.135Z,69.20
2018-09-19T23:36:09.749Z,70.06
2018-09-19T23:38:39.140Z,69.33
2018-09-19T23:41:07.808Z,69.93
2018-09-19T23:43:36.465Z,70.02
2018-09-19T23:46:05.168Z,69.37
2018-09-19T23:48:33.863Z,69.79
2018-09-19T23:51:02.479Z,69.19
2018-09-19T23:53:31.113Z,69.92
2018-09-19T23:55:59.833Z,69.74
2018-09-19T23:58:28.437Z,69.94
